Terminal Aerodrome Forecast
Issued by NWS

Home | Current Version | Previous Version | Text Only | Print | Product List | Glossary On
Versions: 1 2 3 4 5 6 7 8 9 10 11 12 13 14 15 16 17 18
703
FTUS41 KILN 230523
TAFLUK
TAF
KLUK 230523Z 2306/2406 00000KT 1SM BR FEW250
     FM230900 00000KT 1/4SM FG VV002
     FM231300 07004KT P6SM FEW250=

USA.gov is the U.S. government's official web portal to all federal, state and local government web resources and services.